Formosa, Argentina
Current Conditions -  °F | °C
As of 12:00 AM on Saturday 29 Nov 2014 (Local Time) from SARF Reporting Station
Clear Clear  
Wind Chill: 25°   Ceiling: Unl
Heat Index: 26°   Visibility: 6mi
Dew Point: 22°   Wind: 6mph
Humidity: 83%   Direction: 90°E
Pressure: 29.8"   Gusts: NA
Location:  26.18°S, 58.18°W
Report Text: SARF 290300Z 09005KT CAVOK 25/22 Q1009
Loading
Personal Weather Stations






























Interactive Weather Map New forecast layout! Learn more

10-Day Weather Forecast

Advertisements
Track Severe Weather on mobile